Time;durP1;ratioP1;P1;durP2;ratioP2;P2;SDS_P1;SDS_P2;PMS_P1;PMS_P2;Temp;Humidity;BMP_temperature;BMP_pressure;BME280_temperature;BME280_humidity;BME280_pressure;Samples;Min_cycle;Max_cycle;Signal;HPM_P1;HPM_P2
2021/12/04 00:00:53;;;;;;;60.38;33.33;;;;;;;;;;5097458;27;20057;-78
2021/12/04 00:03:19;;;;;;;69.40;38.50;;;;;;;;;;5115713;27;20454;-76
2021/12/04 00:05:52;;;;;;;69.18;37.20;;;;;;;;;;5116145;27;20098;-77
2021/12/04 00:08:17;;;;;;;65.68;36.88;;;;;;;;;;5097528;27;20019;-77
2021/12/04 00:10:42;;;;;;;68.85;35.55;;;;;;;;;;5083612;28;20035;-77
2021/12/04 00:13:08;;;;;;;68.93;37.65;;;;;;;;;;5076030;28;20018;-78
2021/12/04 00:15:33;;;;;;;58.58;32.65;;;;;;;;;;5076823;28;20024;-77
2021/12/04 00:18:00;;;;;;;68.55;37.20;;;;;;;;;;5093684;28;20023;-76
2021/12/04 00:20:27;;;;;;;52.75;32.55;;;;;;;;;;5075490;28;20069;-77
2021/12/04 00:22:56;;;;;;;38.50;25.58;;;;;;;;;;5094458;28;20032;-77
2021/12/04 00:25:21;;;;;;;34.97;23.95;;;;;;;;;;5077264;28;20494;-77
2021/12/04 00:27:47;;;;;;;29.63;20.63;;;;;;;;;;5077295;28;20081;-77
2021/12/04 00:30:12;;;;;;;28.02;20.13;;;;;;;;;;5094946;28;20031;-77
2021/12/04 00:32:41;;;;;;;27.88;19.88;;;;;;;;;;5076532;28;20380;-78
2021/12/04 00:49:05;;;;;;;29.80;20.70;;;;;;;;;;5095174;28;20042;-78
2021/12/04 00:51:32;;;;;;;26.85;19.52;;;;;;;;;;5095146;28;20058;-78
2021/12/04 00:53:58;;;;;;;30.55;20.45;;;;;;;;;;5076448;28;20130;-77
2021/12/04 00:56:23;;;;;;;36.70;26.17;;;;;;;;;;5076387;28;20560;-78
2021/12/04 00:58:49;;;;;;;30.55;21.58;;;;;;;;;;5095368;28;20039;-77
2021/12/04 01:01:18;;;;;;;34.45;22.55;;;;;;;;;;5077012;28;20019;-77
2021/12/04 01:03:43;;;;;;;33.58;22.02;;;;;;;;;;5076750;28;20024;-78
2021/12/04 01:06:09;;;;;;;35.47;25.13;;;;;;;;;;5076373;28;20478;-78
2021/12/04 01:08:34;;;;;;;36.45;25.42;;;;;;;;;;5076411;28;20077;-77
2021/12/04 01:11:02;;;;;;;37.85;26.70;;;;;;;;;;5076323;28;20084;-78
2021/12/04 01:13:27;;;;;;;30.60;21.48;;;;;;;;;;5094444;28;20545;-78
2021/12/04 01:15:53;;;;;;;30.52;22.08;;;;;;;;;;5095369;28;20098;-78
2021/12/04 01:18:18;;;;;;;46.92;31.95;;;;;;;;;;5076605;28;20272;-78
2021/12/04 01:20:43;;;;;;;40.53;25.35;;;;;;;;;;5076119;28;20032;-78
2021/12/04 01:23:09;;;;;;;42.55;28.35;;;;;;;;;;5094304;28;20027;-77
2021/12/04 01:25:37;;;;;;;41.92;28.17;;;;;;;;;;5076760;28;20488;-78
2021/12/04 01:28:04;;;;;;;36.58;24.58;;;;;;;;;;5095312;28;20023;-77
2021/12/04 01:30:30;;;;;;;32.60;21.15;;;;;;;;;;5076931;28;20101;-78
2021/12/04 01:32:55;;;;;;;32.63;22.05;;;;;;;;;;5080328;28;20086;-78
2021/12/04 01:35:20;;;;;;;29.23;20.58;;;;;;;;;;5080191;28;20027;-78
2021/12/04 01:37:46;;;;;;;33.75;22.05;;;;;;;;;;5080328;28;20517;-77
2021/12/04 01:40:11;;;;;;;30.98;22.65;;;;;;;;;;5098983;28;20031;-78
2021/12/04 01:42:37;;;;;;;32.20;22.67;;;;;;;;;;5098205;28;20409;-78
2021/12/04 01:45:04;;;;;;;40.20;28.45;;;;;;;;;;5079904;28;20122;-78
2021/12/04 01:47:30;;;;;;;34.97;23.98;;;;;;;;;;5079812;28;20035;-77
2021/12/04 01:49:55;;;;;;;38.08;25.80;;;;;;;;;;5079632;28;20019;-77
2021/12/04 01:52:21;;;;;;;31.20;22.58;;;;;;;;;;5079519;28;20023;-77
2021/12/04 01:54:47;;;;;;;28.15;20.67;;;;;;;;;;5097696;28;20114;-77
2021/12/04 01:57:14;;;;;;;33.00;22.25;;;;;;;;;;5079682;28;20048;-78
2021/12/04 01:59:40;;;;;;;31.75;21.67;;;;;;;;;;5079710;28;20035;-78
2021/12/04 02:02:05;;;;;;;30.75;21.13;;;;;;;;;;5079514;28;20027;-77
2021/12/04 02:04:31;;;;;;;34.63;24.73;;;;;;;;;;5079616;28;20530;-77
2021/12/04 02:06:56;;;;;;;39.97;24.27;;;;;;;;;;5097664;28;20027;-77
2021/12/04 02:09:22;;;;;;;28.60;20.10;;;;;;;;;;5097424;28;20098;-78
2021/12/04 02:11:47;;;;;;;28.63;18.85;;;;;;;;;;5079415;28;20118;-77
2021/12/04 02:14:13;;;;;;;25.42;18.52;;;;;;;;;;5080760;28;20066;-78
2021/12/04 02:16:38;;;;;;;44.88;29.27;;;;;;;;;;5097020;28;20016;-77
2021/12/04 02:19:04;;;;;;;29.38;20.08;;;;;;;;;;5078914;28;20019;-77
2021/12/04 02:21:31;;;;;;;44.58;28.73;;;;;;;;;;5079411;28;20027;-78
2021/12/04 02:23:56;;;;;;;41.90;26.13;;;;;;;;;;5078969;28;20038;-78
2021/12/04 02:26:22;;;;;;;50.25;30.80;;;;;;;;;;5098016;28;20593;-78
2021/12/04 02:28:47;;;;;;;67.40;40.13;;;;;;;;;;5079081;28;20027;-78
2021/12/04 02:31:12;;;;;;;52.67;32.67;;;;;;;;;;5097057;28;20512;-77
2021/12/04 02:33:38;;;;;;;57.25;30.33;;;;;;;;;;5097158;28;20027;-78
2021/12/04 02:36:05;;;;;;;57.42;29.48;;;;;;;;;;5078665;28;20088;-78
2021/12/04 02:38:30;;;;;;;47.03;28.45;;;;;;;;;;5078442;28;20034;-76
2021/12/04 02:40:57;;;;;;;58.28;28.60;;;;;;;;;;5078751;28;20024;-77
2021/12/04 02:43:22;;;;;;;80.18;35.03;;;;;;;;;;5078322;28;20077;-78
2021/12/04 02:45:48;;;;;;;53.38;25.58;;;;;;;;;;5096394;28;20016;-79
2021/12/04 02:48:14;;;;;;;75.90;36.83;;;;;;;;;;5078502;28;20031;-78
2021/12/04 02:50:39;;;;;;;57.10;31.50;;;;;;;;;;5096905;28;20027;-77
2021/12/04 02:53:05;;;;;;;44.72;26.23;;;;;;;;;;5097252;28;20024;-78
2021/12/04 02:55:30;;;;;;;75.78;44.78;;;;;;;;;;5096972;28;20522;-78
2021/12/04 02:57:56;;;;;;;50.45;28.83;;;;;;;;;;5077815;28;20087;-78
2021/12/04 03:00:23;;;;;;;39.25;24.30;;;;;;;;;;5096798;28;20023;-78
2021/12/04 03:02:49;;;;;;;34.72;21.52;;;;;;;;;;5098006;28;20028;-79
2021/12/04 03:05:21;;;;;;;28.98;18.77;;;;;;;;;;5077998;28;20114;-80
2021/12/04 03:07:46;;;;;;;25.98;17.92;;;;;;;;;;5078329;28;20035;-78
2021/12/04 03:10:11;;;;;;;30.63;20.50;;;;;;;;;;5097974;28;20046;-79
2021/12/04 03:12:37;;;;;;;40.63;23.98;;;;;;;;;;5077788;28;20031;-78
2021/12/04 03:15:03;;;;;;;36.45;20.88;;;;;;;;;;5078276;28;20110;-79
2021/12/04 03:17:28;;;;;;;27.17;18.13;;;;;;;;;;5097346;28;20031;-78
2021/12/04 03:19:54;;;;;;;22.88;16.27;;;;;;;;;;5095844;28;20363;-79
2021/12/04 03:22:21;;;;;;;19.48;15.07;;;;;;;;;;5077647;28;20023;-79
2021/12/04 03:24:46;;;;;;;20.15;14.85;;;;;;;;;;5096641;28;20466;-79
2021/12/04 03:27:13;;;;;;;21.10;15.25;;;;;;;;;;5077550;28;20023;-78
2021/12/04 03:29:42;;;;;;;20.10;14.50;;;;;;;;;;5095975;28;20370;-79
2021/12/04 03:32:50;;;;;;;23.33;16.23;;;;;;;;;;5097434;28;20110;-78
2021/12/04 03:42:58;;;;;;;22.88;17.08;;;;;;;;;;5095949;28;20044;-78
2021/12/04 03:45:24;;;;;;;21.40;15.43;;;;;;;;;;5077532;28;20032;-78
2021/12/04 03:47:52;;;;;;;23.13;15.63;;;;;;;;;;5077611;28;20061;-78
2021/12/04 03:50:17;;;;;;;26.50;16.83;;;;;;;;;;5095556;28;20469;-78
2021/12/04 03:52:43;;;;;;;24.38;16.92;;;;;;;;;;5077448;28;20088;-78
2021/12/04 03:55:09;;;;;;;26.40;19.55;;;;;;;;;;5094823;28;20072;-78
2021/12/04 03:57:35;;;;;;;27.67;20.13;;;;;;;;;;5077146;28;20093;-79
2021/12/04 04:00:01;;;;;;;28.95;20.70;;;;;;;;;;5096282;28;20035;-79
2021/12/04 04:02:26;;;;;;;25.88;16.17;;;;;;;;;;5095444;28;20027;-79
2021/12/04 04:04:52;;;;;;;26.77;16.95;;;;;;;;;;5096253;28;20030;-80
2021/12/04 04:07:17;;;;;;;23.23;15.27;;;;;;;;;;5077356;28;20020;-78
2021/12/04 04:09:42;;;;;;;22.30;14.77;;;;;;;;;;5077103;28;20508;-78
2021/12/04 04:12:08;;;;;;;24.65;16.45;;;;;;;;;;5077097;28;20027;-78
2021/12/04 04:14:33;;;;;;;23.52;15.10;;;;;;;;;;5078339;28;20982;-78
2021/12/04 04:16:59;;;;;;;20.35;14.85;;;;;;;;;;5076627;28;20031;-78
2021/12/04 04:19:25;;;;;;;21.13;14.35;;;;;;;;;;5095509;28;20566;-78
2021/12/04 04:21:55;;;;;;;23.40;15.88;;;;;;;;;;5076456;28;20292;-78
2021/12/04 04:24:20;;;;;;;22.80;15.65;;;;;;;;;;5076976;28;20023;-80
2021/12/04 04:26:46;;;;;;;22.60;15.15;;;;;;;;;;5076734;28;20431;-78
2021/12/04 04:29:12;;;;;;;25.52;16.90;;;;;;;;;;5094953;28;20127;-78
2021/12/04 04:31:46;;;;;;;23.35;17.15;;;;;;;;;;5077150;28;20036;-78
2021/12/04 04:34:12;;;;;;;22.70;15.85;;;;;;;;;;5077298;28;20051;-79
2021/12/04 04:58:16;;;;;;;26.58;17.63;;;;;;;;;;5111926;27;20466;-77
2021/12/04 05:00:58;;;;;;;27.45;19.17;;;;;;;;;;5097665;28;20359;-77
2021/12/04 05:11:55;;;;;;;45.85;24.83;;;;;;;;;;5119452;27;20114;-78
2021/12/04 05:14:20;;;;;;;31.05;19.25;;;;;;;;;;5119580;27;20369;-77
2021/12/04 05:16:53;;;;;;;28.50;19.30;;;;;;;;;;5102315;27;20031;-77
2021/12/04 05:22:02;;;;;;;33.15;20.75;;;;;;;;;;5119413;27;20929;-78
2021/12/04 05:24:28;;;;;;;32.60;20.98;;;;;;;;;;5119556;27;20031;-78
2021/12/04 05:26:53;;;;;;;41.25;25.25;;;;;;;;;;5087986;28;20043;-78
2021/12/04 05:29:18;;;;;;;56.03;30.55;;;;;;;;;;5079953;28;20037;-77
2021/12/04 05:31:44;;;;;;;42.90;26.13;;;;;;;;;;5080119;28;20024;-78
2021/12/04 05:34:09;;;;;;;43.83;24.42;;;;;;;;;;5080336;28;20016;-78
2021/12/04 05:36:35;;;;;;;36.47;22.02;;;;;;;;;;5080399;28;20024;-78
2021/12/04 05:39:00;;;;;;;94.15;53.55;;;;;;;;;;5079758;28;20053;-78
2021/12/04 05:41:25;;;;;;;60.55;39.38;;;;;;;;;;5079768;28;20470;-78
2021/12/04 05:43:51;;;;;;;58.92;38.08;;;;;;;;;;5080017;28;20700;-78
2021/12/04 05:46:19;;;;;;;39.10;25.00;;;;;;;;;;5079414;28;20456;-78
2021/12/04 05:49:04;;;;;;;29.77;18.75;;;;;;;;;;5080173;28;20030;-78
2021/12/04 05:56:45;;;;;;;53.58;30.45;;;;;;;;;;5084169;28;20063;-77
2021/12/04 05:59:11;;;;;;;94.85;47.30;;;;;;;;;;5099161;28;20683;-77
2021/12/04 06:01:36;;;;;;;45.63;26.33;;;;;;;;;;5097850;28;20028;-78
2021/12/04 06:04:02;;;;;;;95.68;53.97;;;;;;;;;;5083092;27;20469;-77
2021/12/04 06:06:27;;;;;;;79.75;45.72;;;;;;;;;;5098163;27;20392;-76
2021/12/04 06:08:53;;;;;;;58.53;33.10;;;;;;;;;;5117865;27;20565;-77
2021/12/04 06:11:18;;;;;;;39.28;24.27;;;;;;;;;;5099846;27;20072;-80
2021/12/04 06:13:44;;;;;;;38.72;25.70;;;;;;;;;;5099454;27;20059;-77
2021/12/04 06:16:10;;;;;;;46.47;29.48;;;;;;;;;;5099207;27;20453;-76
2021/12/04 06:18:35;;;;;;;57.47;35.30;;;;;;;;;;5118082;27;20015;-76
2021/12/04 06:23:45;;;;;;;57.95;35.60;;;;;;;;;;5118081;27;20064;-77
2021/12/04 06:26:10;;;;;;;50.20;30.50;;;;;;;;;;5117515;27;20098;-77
2021/12/04 06:28:35;;;;;;;67.88;44.78;;;;;;;;;;5117603;27;20102;-77
2021/12/04 06:31:02;;;;;;;73.43;44.38;;;;;;;;;;5118132;27;20023;-78
2021/12/04 06:33:28;;;;;;;61.97;40.42;;;;;;;;;;5099423;27;20694;-77
2021/12/04 06:35:53;;;;;;;57.70;35.58;;;;;;;;;;5117637;27;20594;-78
2021/12/04 06:38:19;;;;;;;53.28;33.53;;;;;;;;;;5117411;27;20019;-79
2021/12/04 06:40:46;;;;;;;51.28;31.92;;;;;;;;;;5098829;27;20029;-77
2021/12/04 06:43:12;;;;;;;55.15;35.08;;;;;;;;;;5099021;27;20027;-76
2021/12/04 06:45:41;;;;;;;54.72;33.75;;;;;;;;;;5117796;27;20042;-76
2021/12/04 06:48:10;;;;;;;176.40;94.18;;;;;;;;;;5098786;27;20031;-77
2021/12/04 06:50:41;;;;;;;115.90;68.93;;;;;;;;;;5117810;27;20030;-77
2021/12/04 06:53:30;;;;;;;130.15;78.97;;;;;;;;;;5098886;27;20268;-76
2021/12/04 06:55:58;;;;;;;88.87;55.30;;;;;;;;;;5098162;27;20039;-76
2021/12/04 06:58:24;;;;;;;77.25;45.45;;;;;;;;;;5117690;27;20169;-78
2021/12/04 07:00:50;;;;;;;57.15;35.15;;;;;;;;;;5098658;27;20026;-77
2021/12/04 07:03:16;;;;;;;44.65;27.70;;;;;;;;;;5116512;27;20035;-77
2021/12/04 07:05:42;;;;;;;54.15;33.08;;;;;;;;;;5098327;27;20025;-78
2021/12/04 07:08:07;;;;;;;49.33;29.33;;;;;;;;;;5117279;27;20029;-77
2021/12/04 07:10:33;;;;;;;39.45;25.13;;;;;;;;;;5107818;27;20029;-76
2021/12/04 07:12:59;;;;;;;58.35;36.13;;;;;;;;;;5101858;27;20031;-75
2021/12/04 07:15:27;;;;;;;41.10;26.13;;;;;;;;;;5104138;27;20065;-77
2021/12/04 07:17:53;;;;;;;70.90;43.30;;;;;;;;;;5096045;28;20047;-77
2021/12/04 07:20:18;;;;;;;57.88;39.90;;;;;;;;;;5097377;28;20104;-77
2021/12/04 07:22:44;;;;;;;78.72;48.17;;;;;;;;;;5094652;28;20026;-79
2021/12/04 07:25:11;;;;;;;39.75;25.85;;;;;;;;;;5098251;27;20134;-78
2021/12/04 07:27:36;;;;;;;42.75;27.33;;;;;;;;;;5097757;27;20110;-77
2021/12/04 07:30:03;;;;;;;40.22;25.33;;;;;;;;;;5115629;27;20472;-77
2021/12/04 07:32:29;;;;;;;37.92;24.48;;;;;;;;;;5097055;27;20031;-77
2021/12/04 07:34:55;;;;;;;43.42;28.83;;;;;;;;;;5117162;27;20019;-77
2021/12/04 07:37:20;;;;;;;50.17;32.45;;;;;;;;;;5117301;27;20023;-77
2021/12/04 07:39:46;;;;;;;51.08;31.45;;;;;;;;;;5097194;27;20026;-78
2021/12/04 07:42:11;;;;;;;40.85;24.92;;;;;;;;;;5097632;27;20022;-78
2021/12/04 07:44:36;;;;;;;43.42;28.25;;;;;;;;;;5115976;27;20027;-78
2021/12/04 07:47:02;;;;;;;46.58;29.40;;;;;;;;;;5097022;27;20054;-77
2021/12/04 07:49:27;;;;;;;31.50;21.02;;;;;;;;;;5097481;27;20050;-78
2021/12/04 07:51:53;;;;;;;37.63;21.58;;;;;;;;;;5097926;27;20457;-78
2021/12/04 07:54:18;;;;;;;30.15;18.75;;;;;;;;;;5097583;27;20027;-78
2021/12/04 07:56:44;;;;;;;26.52;18.05;;;;;;;;;;5091276;28;20059;-77
2021/12/04 07:59:09;;;;;;;23.48;16.20;;;;;;;;;;5075921;28;20445;-75
2021/12/04 08:01:35;;;;;;;28.85;18.70;;;;;;;;;;5094984;28;20035;-78
2021/12/04 08:04:00;;;;;;;75.97;43.53;;;;;;;;;;5096341;28;20073;-77
2021/12/04 08:06:26;;;;;;;113.82;53.83;;;;;;;;;;5090543;28;20026;-76
2021/12/04 08:08:53;;;;;;;117.10;52.70;;;;;;;;;;5095378;28;20094;-76
2021/12/04 08:11:19;;;;;;;105.85;52.40;;;;;;;;;;5095050;28;20374;-77
2021/12/04 08:13:44;;;;;;;115.22;57.17;;;;;;;;;;5094607;28;20030;-77
2021/12/04 08:16:09;;;;;;;91.93;46.92;;;;;;;;;;5076615;28;20030;-76
2021/12/04 08:18:35;;;;;;;65.28;39.75;;;;;;;;;;5076677;28;20026;-76
2021/12/04 08:21:00;;;;;;;91.60;47.00;;;;;;;;;;5094396;28;20024;-78
2021/12/04 08:23:25;;;;;;;55.47;32.78;;;;;;;;;;5076937;28;20427;-78
2021/12/04 08:25:51;;;;;;;51.92;31.13;;;;;;;;;;5076300;28;20024;-77
2021/12/04 08:28:16;;;;;;;57.22;30.65;;;;;;;;;;5075955;28;20020;-78
2021/12/04 08:30:42;;;;;;;77.00;45.13;;;;;;;;;;5076859;28;20022;-77
2021/12/04 08:33:11;;;;;;;41.15;25.65;;;;;;;;;;5095266;28;20442;-77
2021/12/04 08:35:39;;;;;;;55.50;36.10;;;;;;;;;;5076965;28;20465;-77
2021/12/04 08:38:05;;;;;;;74.75;45.33;;;;;;;;;;5077123;28;20027;-75
2021/12/04 08:40:31;;;;;;;41.00;24.58;;;;;;;;;;5098175;28;20095;-78
2021/12/04 08:42:57;;;;;;;36.20;23.98;;;;;;;;;;5080770;28;20452;-77
2021/12/04 08:45:22;;;;;;;50.15;30.23;;;;;;;;;;5098930;28;20107;-77
2021/12/04 08:47:48;;;;;;;41.47;26.30;;;;;;;;;;5099313;28;20046;-76
2021/12/04 08:50:15;;;;;;;46.80;30.42;;;;;;;;;;5081114;28;20054;-76
2021/12/04 08:52:41;;;;;;;37.10;24.42;;;;;;;;;;5080860;28;20032;-76
2021/12/04 08:55:06;;;;;;;50.10;29.83;;;;;;;;;;5079897;28;20532;-77
2021/12/04 08:57:32;;;;;;;48.45;31.65;;;;;;;;;;5111519;27;20051;-77
2021/12/04 08:59:57;;;;;;;46.60;28.77;;;;;;;;;;5095256;27;20027;-76
2021/12/04 09:02:23;;;;;;;98.95;57.28;;;;;;;;;;5100614;27;20049;-75
2021/12/04 09:04:49;;;;;;;114.20;64.07;;;;;;;;;;5119575;27;20477;-75
2021/12/04 09:07:15;;;;;;;211.25;123.47;;;;;;;;;;5119373;27;20105;-75
2021/12/04 09:09:40;;;;;;;178.45;120.05;;;;;;;;;;5119058;27;20527;-77
2021/12/04 09:12:07;;;;;;;79.45;45.45;;;;;;;;;;5101888;27;20031;-78
2021/12/04 09:14:35;;;;;;;43.08;25.08;;;;;;;;;;5100960;27;20030;-75
2021/12/04 09:17:01;;;;;;;35.20;23.08;;;;;;;;;;5099738;27;20019;-75
2021/12/04 09:19:27;;;;;;;37.22;23.85;;;;;;;;;;5112120;27;20042;-78
2021/12/04 09:21:53;;;;;;;36.70;23.50;;;;;;;;;;5106691;27;20454;-75
2021/12/04 09:24:25;;;;;;;32.92;21.17;;;;;;;;;;5116841;27;20027;-79
2021/12/04 09:59:56;;;;;;;26.17;14.90;;;;;;;;;;5117979;27;20034;-78
2021/12/04 10:05:24;;;;;;;42.25;25.33;;;;;;;;;;5118303;27;20468;-78
2021/12/04 10:14:18;;;;;;;50.42;33.10;;;;;;;;;;5118322;27;20412;-77
2021/12/04 10:24:35;;;;;;;41.20;24.88;;;;;;;;;;5118253;27;20422;-78
2021/12/04 10:34:53;;;;;;;39.72;25.77;;;;;;;;;;5117690;27;20068;-76
2021/12/04 10:37:25;;;;;;;32.30;20.15;;;;;;;;;;5116331;27;20023;-78
2021/12/04 10:39:52;;;;;;;32.92;23.77;;;;;;;;;;5112118;27;20027;-79
2021/12/04 10:42:23;;;;;;;27.05;19.48;;;;;;;;;;5099066;27;20114;-78
2021/12/04 10:44:51;;;;;;;33.28;21.88;;;;;;;;;;5098737;27;20031;-77
2021/12/04 10:47:22;;;;;;;33.08;25.25;;;;;;;;;;5098578;27;20363;-77
2021/12/04 10:50:07;;;;;;;30.60;19.90;;;;;;;;;;5098947;27;20114;-77
2021/12/04 10:55:18;;;;;;;19.25;14.10;;;;;;;;;;5116286;27;20522;-79
2021/12/04 10:58:19;;;;;;;31.15;21.70;;;;;;;;;;5117058;27;20615;-79
2021/12/04 11:01:10;;;;;;;24.95;16.45;;;;;;;;;;5097100;27;20460;-76
2021/12/04 11:46:42;;;;;;;61.30;39.58;;;;;;;;;;5089905;28;20093;-74
2021/12/04 11:49:27;;;;;;;84.68;49.67;;;;;;;;;;5095638;28;20098;-75
2021/12/04 11:51:58;;;;;;;66.53;42.60;;;;;;;;;;5076105;28;20046;-76
2021/12/04 11:54:28;;;;;;;41.50;27.83;;;;;;;;;;5072867;28;20126;-76
2021/12/04 11:57:12;;;;;;;32.03;22.92;;;;;;;;;;5100374;27;20590;-76
2021/12/04 11:59:39;;;;;;;34.60;22.17;;;;;;;;;;5116662;27;20094;-78
2021/12/04 12:02:08;;;;;;;54.28;33.08;;;;;;;;;;5098276;27;20040;-75
2021/12/04 12:04:38;;;;;;;57.85;34.60;;;;;;;;;;5116588;27;20072;-74
2021/12/04 12:07:15;;;;;;;65.82;37.78;;;;;;;;;;5116412;27;20023;-75
2021/12/04 12:09:40;;;;;;;68.68;43.25;;;;;;;;;;5097279;27;20031;-75
2021/12/04 12:12:08;;;;;;;48.45;30.90;;;;;;;;;;5105618;27;20033;-76
2021/12/04 12:14:39;;;;;;;69.93;45.88;;;;;;;;;;5105280;27;20107;-76
2021/12/04 12:17:05;;;;;;;47.72;30.30;;;;;;;;;;5107792;27;20131;-77
2021/12/04 12:19:37;;;;;;;55.92;34.00;;;;;;;;;;5096742;28;20057;-74
2021/12/04 12:22:14;;;;;;;49.58;32.50;;;;;;;;;;5095226;28;20050;-74
2021/12/04 12:38:10;;;;;;;72.28;43.58;;;;;;;;;;5115179;28;20512;-76
2021/12/04 12:40:36;;;;;;;68.53;42.60;;;;;;;;;;5097150;28;20027;-76
2021/12/04 12:43:10;;;;;;;58.72;35.67;;;;;;;;;;5095603;28;20524;-76
2021/12/04 12:45:35;;;;;;;49.60;31.40;;;;;;;;;;5112314;28;20024;-76
2021/12/04 12:48:01;;;;;;;98.97;54.67;;;;;;;;;;5114962;28;20063;-75
2021/12/04 12:50:29;;;;;;;80.97;51.45;;;;;;;;;;5096359;28;20031;-76
2021/12/04 12:53:03;;;;;;;60.72;36.65;;;;;;;;;;5091105;28;20032;-75
2021/12/04 12:55:32;;;;;;;67.47;39.38;;;;;;;;;;5097081;28;20023;-76
2021/12/04 12:57:58;;;;;;;34.25;23.55;;;;;;;;;;5116250;28;20466;-76
2021/12/04 13:11:47;;;;;;;98.20;38.90;;;;;;;;;;5093511;28;20053;-75
2021/12/04 13:14:27;;;;;;;63.60;29.25;;;;;;;;;;5093371;28;20043;-74
2021/12/04 13:16:59;;;;;;;56.70;30.48;;;;;;;;;;5100026;28;20027;-76
2021/12/04 13:19:25;;;;;;;41.22;27.55;;;;;;;;;;5080707;28;20076;-76
2021/12/04 13:21:55;;;;;;;27.88;19.35;;;;;;;;;;5093619;28;20058;-78
2021/12/04 13:24:25;;;;;;;33.28;22.90;;;;;;;;;;5079757;28;20023;-77
2021/12/04 13:26:52;;;;;;;30.02;20.90;;;;;;;;;;5101622;27;20066;-77
2021/12/04 13:29:19;;;;;;;31.42;22.83;;;;;;;;;;5084347;27;20110;-76
2021/12/04 13:31:44;;;;;;;28.40;19.77;;;;;;;;;;5104528;27;20370;-77
2021/12/04 13:34:12;;;;;;;34.00;27.02;;;;;;;;;;5102819;27;20085;-76
2021/12/04 13:36:38;;;;;;;31.67;23.00;;;;;;;;;;5083314;27;20453;-77
2021/12/04 13:39:05;;;;;;;46.50;35.00;;;;;;;;;;5084843;27;20031;-76
2021/12/04 13:41:31;;;;;;;44.20;32.83;;;;;;;;;;5083870;27;20046;-77
2021/12/04 13:43:58;;;;;;;31.45;24.73;;;;;;;;;;5099902;27;20599;-76
2021/12/04 13:46:24;;;;;;;30.55;22.38;;;;;;;;;;5103008;27;20024;-76
2021/12/04 13:48:50;;;;;;;35.17;23.83;;;;;;;;;;5103020;27;20106;-76
2021/12/04 13:51:15;;;;;;;136.57;65.32;;;;;;;;;;5082617;27;20102;-76
2021/12/04 13:53:42;;;;;;;140.23;74.55;;;;;;;;;;5102387;27;20556;-77
2021/12/04 13:56:13;;;;;;;108.35;58.10;;;;;;;;;;5103148;27;20055;-77
2021/12/04 13:58:59;;;;;;;89.30;50.95;;;;;;;;;;5085754;27;20036;-78
2021/12/04 14:01:25;;;;;;;59.35;36.53;;;;;;;;;;5104209;27;20027;-76
2021/12/04 14:03:58;;;;;;;89.05;45.75;;;;;;;;;;5085577;27;20118;-76
2021/12/04 14:06:27;;;;;;;75.30;43.08;;;;;;;;;;5104947;27;20031;-78
2021/12/04 14:08:55;;;;;;;46.47;29.33;;;;;;;;;;5084311;27;20166;-77
2021/12/04 14:11:35;;;;;;;53.28;31.52;;;;;;;;;;5102843;27;20458;-77
2021/12/04 14:14:17;;;;;;;70.85;43.22;;;;;;;;;;5102026;27;20566;-76
2021/12/04 14:16:43;;;;;;;85.53;49.58;;;;;;;;;;5103414;27;20029;-77
2021/12/04 14:19:13;;;;;;;62.65;41.10;;;;;;;;;;5079216;27;20052;-75
2021/12/04 14:21:38;;;;;;;59.95;36.78;;;;;;;;;;5102229;27;20034;-76
2021/12/04 14:24:04;;;;;;;55.30;33.97;;;;;;;;;;5076831;28;20023;-76
2021/12/04 14:26:29;;;;;;;70.60;41.28;;;;;;;;;;5078605;28;20027;-77
2021/12/04 14:28:55;;;;;;;68.18;40.10;;;;;;;;;;5096817;28;20042;-76
2021/12/04 14:31:21;;;;;;;67.10;38.65;;;;;;;;;;5096720;28;20476;-77
2021/12/04 14:33:47;;;;;;;85.28;50.08;;;;;;;;;;5077085;27;20024;-78
2021/12/04 14:36:17;;;;;;;91.50;52.55;;;;;;;;;;5103083;27;20031;-75
2021/12/04 14:38:44;;;;;;;88.20;52.42;;;;;;;;;;5102769;27;20060;-73
2021/12/04 14:41:09;;;;;;;74.15;44.20;;;;;;;;;;5103871;27;20027;-76
2021/12/04 14:43:37;;;;;;;104.10;54.38;;;;;;;;;;5103272;27;20571;-77
2021/12/04 14:46:05;;;;;;;176.15;88.40;;;;;;;;;;5084753;27;20035;-76
2021/12/04 14:48:36;;;;;;;283.45;139.93;;;;;;;;;;5103247;27;20559;-76
2021/12/04 14:51:07;;;;;;;185.02;88.80;;;;;;;;;;5085143;27;20251;-76
2021/12/04 14:53:34;;;;;;;194.30;95.18;;;;;;;;;;5084004;27;20122;-76
2021/12/04 14:55:59;;;;;;;174.60;86.07;;;;;;;;;;5084645;27;20080;-78
2021/12/04 14:58:26;;;;;;;102.15;58.05;;;;;;;;;;5084743;27;20031;-76
2021/12/04 15:00:54;;;;;;;66.57;44.30;;;;;;;;;;5084005;27;20032;-76
2021/12/04 15:03:28;;;;;;;74.25;50.25;;;;;;;;;;5084343;27;20088;-76
2021/12/04 15:05:54;;;;;;;56.45;41.58;;;;;;;;;;5085011;27;20755;-76
2021/12/04 15:08:22;;;;;;;50.03;38.60;;;;;;;;;;5103334;27;20075;-77
2021/12/04 15:10:49;;;;;;;46.13;32.03;;;;;;;;;;5101919;27;20461;-77
2021/12/04 15:13:17;;;;;;;168.02;87.90;;;;;;;;;;5102298;27;20036;-76
2021/12/04 15:15:43;;;;;;;199.68;111.20;;;;;;;;;;5102424;27;20114;-77
2021/12/04 15:18:11;;;;;;;113.97;63.70;;;;;;;;;;5102196;27;20111;-76
2021/12/04 15:20:42;;;;;;;127.07;75.57;;;;;;;;;;5084138;27;20027;-77
2021/12/04 15:23:09;;;;;;;188.73;113.18;;;;;;;;;;5084098;27;20027;-78
2021/12/04 15:25:36;;;;;;;158.38;93.55;;;;;;;;;;5102743;27;20038;-79
2021/12/04 15:28:18;;;;;;;136.35;80.03;;;;;;;;;;5101666;27;20084;-77
2021/12/04 15:30:44;;;;;;;151.98;89.30;;;;;;;;;;5102429;27;20034;-77
2021/12/04 15:33:19;;;;;;;91.80;55.53;;;;;;;;;;5083874;27;20138;-78
2021/12/04 15:35:48;;;;;;;47.25;27.98;;;;;;;;;;5084211;27;20023;-77
2021/12/04 15:38:22;;;;;;;38.67;24.40;;;;;;;;;;5084047;27;20088;-77
2021/12/04 15:41:17;;;;;;;54.10;33.70;;;;;;;;;;5102007;27;20031;-78
2021/12/04 15:46:17;;;;;;;84.45;52.72;;;;;;;;;;5101634;27;20102;-77
2021/12/04 15:51:43;;;;;;;87.20;58.72;;;;;;;;;;5102446;27;20027;-77
2021/12/04 15:54:07;;;;;;;108.47;68.78;;;;;;;;;;5101768;27;20492;-79
2021/12/04 15:56:40;;;;;;;110.78;70.78;;;;;;;;;;5083528;27;20181;-77
2021/12/04 15:59:06;;;;;;;103.75;64.38;;;;;;;;;;5102110;27;20559;-77
2021/12/04 16:01:31;;;;;;;97.93;60.45;;;;;;;;;;5083286;28;20693;-77
2021/12/04 16:03:58;;;;;;;98.13;55.60;;;;;;;;;;5083535;27;20079;-78
2021/12/04 16:06:35;;;;;;;72.65;43.83;;;;;;;;;;5083841;27;20028;-77
2021/12/04 16:09:00;;;;;;;81.95;49.67;;;;;;;;;;5102026;27;20046;-77
2021/12/04 16:11:34;;;;;;;86.50;49.15;;;;;;;;;;5083674;27;20510;-77
2021/12/04 16:14:01;;;;;;;120.55;61.40;;;;;;;;;;5083744;27;20027;-76
2021/12/04 16:16:29;;;;;;;125.88;62.38;;;;;;;;;;5101186;27;20020;-76
2021/12/04 16:18:57;;;;;;;129.70;61.92;;;;;;;;;;5101251;27;20049;-77
2021/12/04 16:21:24;;;;;;;129.00;65.40;;;;;;;;;;5082519;27;20037;-76
2021/12/04 16:23:51;;;;;;;149.88;76.30;;;;;;;;;;5082758;28;20954;-78
2021/12/04 16:26:18;;;;;;;120.40;67.15;;;;;;;;;;5083078;28;20540;-77
2021/12/04 16:34:04;;;;;;;112.38;65.00;;;;;;;;;;5100948;28;20383;-77
2021/12/04 16:36:41;;;;;;;101.15;63.58;;;;;;;;;;5083285;28;20031;-78
2021/12/04 16:39:10;;;;;;;87.03;54.15;;;;;;;;;;5082546;28;20421;-76
2021/12/04 16:41:36;;;;;;;90.85;55.88;;;;;;;;;;5083473;28;20112;-77
2021/12/04 16:44:02;;;;;;;96.00;60.25;;;;;;;;;;5082828;28;20621;-77
2021/12/04 16:46:29;;;;;;;167.52;93.45;;;;;;;;;;5082744;28;21279;-78
2021/12/04 16:48:58;;;;;;;106.75;58.35;;;;;;;;;;5083320;28;20046;-77
2021/12/04 16:59:25;;;;;;;163.88;103.43;;;;;;;;;;5110257;28;20083;-76
2021/12/04 17:01:52;;;;;;;182.23;112.30;;;;;;;;;;5108970;27;20027;-77
2021/12/04 17:04:18;;;;;;;164.23;98.78;;;;;;;;;;5114630;27;20019;-76
2021/12/04 17:06:45;;;;;;;131.98;79.50;;;;;;;;;;5098577;27;20038;-77
2021/12/04 17:09:10;;;;;;;109.00;65.35;;;;;;;;;;5099624;27;20047;-77
2021/12/04 17:11:36;;;;;;;97.00;57.80;;;;;;;;;;5101359;27;20057;-77
2021/12/04 17:14:02;;;;;;;78.72;46.15;;;;;;;;;;5109804;27;20029;-78
2021/12/04 17:16:30;;;;;;;60.10;40.03;;;;;;;;;;5114905;27;20027;-77
2021/12/04 17:19:10;;;;;;;87.95;55.80;;;;;;;;;;5096055;27;20459;-76
2021/12/04 17:21:37;;;;;;;107.45;61.75;;;;;;;;;;5115374;27;20015;-76
2021/12/04 17:24:04;;;;;;;95.53;55.58;;;;;;;;;;5113266;27;20019;-77
2021/12/04 17:26:29;;;;;;;126.57;77.00;;;;;;;;;;5095775;27;20488;-77
2021/12/04 17:28:55;;;;;;;186.73;105.95;;;;;;;;;;5114474;27;20031;-80
2021/12/04 17:31:21;;;;;;;245.40;156.30;;;;;;;;;;5094552;27;20023;-76
2021/12/04 17:33:48;;;;;;;208.45;126.25;;;;;;;;;;5114569;27;20141;-77
2021/12/04 17:36:13;;;;;;;200.05;120.18;;;;;;;;;;5094626;27;20030;-80
2021/12/04 17:38:44;;;;;;;211.85;122.63;;;;;;;;;;5095208;27;20075;-79
2021/12/04 17:41:13;;;;;;;192.45;111.45;;;;;;;;;;5114607;27;20034;-79
2021/12/04 17:43:39;;;;;;;231.07;131.82;;;;;;;;;;5113994;27;20030;-77
2021/12/04 17:46:04;;;;;;;366.70;185.23;;;;;;;;;;5095013;27;20027;-76